Time;durP1;ratioP1;P1;durP2;ratioP2;P2;SDS_P1;SDS_P2;PMS_P1;PMS_P2;Temp;Humidity;BMP_temperature;BMP_pressure;BME280_temperature;BME280_humidity;BME280_pressure;Samples;Min_cycle;Max_cycle;Signal;HPM_P1;HPM_P2
2022/12/22 03:25:53;;;;;;;10.07;6.05;;;6.30;99.90;;;;;;4990118;28;20090;-61
2022/12/22 03:28:21;;;;;;;10.80;6.45;;;6.30;99.90;;;;;;4972811;28;20086;-60
2022/12/22 03:31:04;;;;;;;13.77;7.53;;;6.40;99.90;;;;;;4972699;28;20106;-61
2022/12/22 03:33:31;;;;;;;7.93;6.43;;;6.40;99.90;;;;;;4989701;28;20053;-61
2022/12/22 03:35:58;;;;;;;13.32;6.95;;;6.40;99.90;;;;;;4989673;28;20074;-61
2022/12/22 03:38:25;;;;;;;9.80;5.97;;;6.50;99.90;;;;;;4971962;28;20141;-61
2022/12/22 03:40:52;;;;;;;12.82;6.90;;;6.50;99.90;;;;;;4990898;28;20514;-61
2022/12/22 03:51:37;;;;;;;11.85;5.95;;;6.50;99.90;;;;;;4975636;28;20084;-61
2022/12/22 03:54:04;;;;;;;7.68;6.10;;;6.60;99.90;;;;;;4990095;28;20047;-61
2022/12/22 03:56:31;;;;;;;11.80;5.90;;;6.70;99.90;;;;;;4969888;28;20050;-61
2022/12/22 03:58:58;;;;;;;17.23;6.20;;;6.80;99.90;;;;;;4968620;28;20494;-61
2022/12/22 04:01:25;;;;;;;15.00;7.03;;;6.90;99.90;;;;;;4972857;28;20050;-61
2022/12/22 04:03:51;;;;;;;14.57;6.35;;;7.00;99.90;;;;;;4988569;28;20096;-63
2022/12/22 04:06:18;;;;;;;9.93;6.03;;;7.10;99.90;;;;;;4989677;28;20048;-61
2022/12/22 04:08:45;;;;;;;15.43;8.02;;;7.20;99.90;;;;;;4972814;28;20509;-61
2022/12/22 04:13:58;;;;;;;13.45;7.20;;;7.30;99.90;;;;;;4966958;28;20593;-61
2022/12/22 04:16:25;;;;;;;13.63;6.03;;;7.30;99.90;;;;;;4971921;28;20046;-61
2022/12/22 04:18:52;;;;;;;13.77;7.10;;;7.30;99.90;;;;;;4989625;28;20441;-61
2022/12/22 04:21:18;;;;;;;14.27;6.93;;;7.40;99.90;;;;;;4989385;28;20450;-61
2022/12/22 04:23:45;;;;;;;14.35;6.47;;;7.40;99.90;;;;;;4989146;28;20137;-61
2022/12/22 04:26:12;;;;;;;16.10;7.53;;;7.50;99.90;;;;;;4988848;28;20194;-61
2022/12/22 04:28:39;;;;;;;17.65;7.28;;;7.50;99.90;;;;;;4989434;28;20411;-62
2022/12/22 04:31:05;;;;;;;14.10;7.22;;;7.50;99.90;;;;;;4990004;28;20054;-61
2022/12/22 04:33:32;;;;;;;11.45;7.22;;;7.50;99.90;;;;;;4956434;28;20134;-61
2022/12/22 04:35:59;;;;;;;12.80;6.38;;;7.50;99.90;;;;;;4988899;28;20095;-61
2022/12/22 04:38:26;;;;;;;17.65;6.50;;;7.50;99.90;;;;;;4989827;28;20133;-61
2022/12/22 04:40:52;;;;;;;9.32;6.38;;;7.50;99.90;;;;;;4990094;28;20050;-61
2022/12/22 04:43:19;;;;;;;14.60;7.30;;;7.50;99.90;;;;;;4972599;28;20073;-61
2022/12/22 04:45:46;;;;;;;16.38;6.10;;;7.50;99.90;;;;;;4971165;28;20078;-61
2022/12/22 04:48:12;;;;;;;12.85;6.57;;;7.50;99.90;;;;;;4989464;28;20054;-61
2022/12/22 04:50:42;;;;;;;16.60;6.93;;;7.60;99.90;;;;;;4972530;28;20064;-59
2022/12/22 04:53:09;;;;;;;12.88;6.07;;;7.60;99.90;;;;;;4989745;28;20046;-61
2022/12/22 04:55:35;;;;;;;10.55;6.80;;;7.60;99.90;;;;;;4989130;28;20060;-61
2022/12/22 04:58:02;;;;;;;13.48;7.10;;;7.50;99.90;;;;;;4971286;28;20165;-61
2022/12/22 05:00:29;;;;;;;10.95;5.93;;;7.50;99.90;;;;;;4989484;28;20406;-61
2022/12/22 05:02:56;;;;;;;12.95;6.40;;;7.50;99.90;;;;;;4988743;28;20050;-61
2022/12/22 05:05:23;;;;;;;11.88;6.03;;;7.50;99.90;;;;;;4999025;28;20494;-61
2022/12/22 05:07:49;;;;;;;13.70;6.78;;;7.40;99.90;;;;;;4988302;28;20038;-61
2022/12/22 05:10:16;;;;;;;14.60;7.32;;;7.50;99.90;;;;;;4988973;28;20506;-61
2022/12/22 05:12:55;;;;;;;10.00;4.93;;;7.40;99.90;;;;;;4988875;28;20486;-61
2022/12/22 05:15:23;;;;;;;14.18;5.60;;;7.40;99.90;;;;;;4969490;28;20042;-62
2022/12/22 05:17:50;;;;;;;8.77;5.53;;;7.40;99.90;;;;;;4988734;28;20046;-61
2022/12/22 05:20:17;;;;;;;12.13;5.90;;;7.40;99.90;;;;;;4984316;28;20039;-62
2022/12/22 05:22:44;;;;;;;12.43;5.68;;;7.30;99.90;;;;;;4972635;28;20050;-61
2022/12/22 05:25:11;;;;;;;7.90;4.70;;;7.40;99.90;;;;;;4992795;28;20046;-60
2022/12/22 05:27:38;;;;;;;10.20;5.72;;;7.40;99.90;;;;;;4991945;28;20050;-61
2022/12/22 05:30:05;;;;;;;10.32;5.85;;;7.30;99.90;;;;;;4974760;28;20137;-61
2022/12/22 05:32:33;;;;;;;11.23;5.55;;;7.30;99.90;;;;;;4992743;28;20489;-61
2022/12/22 05:35:00;;;;;;;11.63;5.35;;;7.30;99.90;;;;;;4993776;28;20093;-61
2022/12/22 05:37:27;;;;;;;10.13;5.30;;;7.30;99.90;;;;;;4996383;28;20058;-61
2022/12/22 05:39:54;;;;;;;7.75;4.70;;;7.30;99.90;;;;;;4991717;28;20137;-61
2022/12/22 05:42:35;;;;;;;14.25;5.22;;;7.30;99.90;;;;;;4976093;28;20126;-61
2022/12/22 05:45:14;;;;;;;9.40;5.40;;;7.30;99.90;;;;;;4992101;28;20156;-61
2022/12/22 05:47:45;;;;;;;10.57;5.20;;;7.30;99.90;;;;;;4978251;28;20054;-60
2022/12/22 05:50:12;;;;;;;9.10;5.47;;;7.30;99.90;;;;;;4994270;28;20080;-60
2022/12/22 05:52:40;;;;;;;15.25;6.80;;;7.30;99.90;;;;;;4975056;28;20042;-61
2022/12/22 05:55:07;;;;;;;9.85;5.57;;;7.30;99.90;;;;;;4974851;28;20138;-61
2022/12/22 05:57:34;;;;;;;11.98;5.70;;;7.30;99.90;;;;;;4978214;28;20090;-61
2022/12/22 06:00:01;;;;;;;10.38;5.15;;;7.30;99.90;;;;;;4979368;28;20046;-61
2022/12/22 06:02:27;;;;;;;10.52;6.07;;;7.40;99.90;;;;;;4991774;28;20058;-63
2022/12/22 06:04:55;;;;;;;8.68;5.07;;;7.40;99.90;;;;;;4991695;28;20042;-61
2022/12/22 06:07:21;;;;;;;10.82;5.53;;;7.30;99.90;;;;;;4974593;28;20133;-61
2022/12/22 06:09:48;;;;;;;9.18;4.63;;;7.20;99.90;;;;;;4975754;28;20058;-61
2022/12/22 06:12:15;;;;;;;14.45;5.90;;;7.20;99.90;;;;;;4992020;28;20054;-61
2022/12/22 06:14:42;;;;;;;13.75;6.25;;;7.20;99.90;;;;;;4942784;28;20146;-61
2022/12/22 06:17:08;;;;;;;11.20;5.40;;;7.20;99.90;;;;;;4992038;28;20461;-61
2022/12/22 06:19:35;;;;;;;15.52;5.30;;;7.10;99.90;;;;;;4959542;28;20129;-61
2022/12/22 06:22:02;;;;;;;11.02;5.88;;;7.10;99.90;;;;;;4974125;28;20075;-61
2022/12/22 06:24:29;;;;;;;14.60;5.70;;;7.00;99.90;;;;;;4991336;28;20141;-61
2022/12/22 06:26:55;;;;;;;10.27;6.18;;;7.10;99.90;;;;;;4990579;28;20391;-61
2022/12/22 06:29:22;;;;;;;13.25;5.78;;;7.00;99.90;;;;;;4990543;28;20137;-61
2022/12/22 06:31:49;;;;;;;20.95;6.65;;;6.90;99.90;;;;;;4974873;28;20131;-61
2022/12/22 06:34:19;;;;;;;35.05;6.78;;;6.90;99.90;;;;;;4989920;28;20046;-62
2022/12/22 06:36:45;;;;;;;79.47;8.30;;;6.90;99.90;;;;;;4998777;28;20054;-61
2022/12/22 06:39:13;;;;;;;135.25;8.85;;;6.80;99.90;;;;;;4942465;28;20046;-61
2022/12/22 06:44:27;;;;;;;102.95;7.07;;;6.70;99.90;;;;;;4990652;28;20081;-61
2022/12/22 06:46:54;;;;;;;119.13;7.43;;;6.60;99.90;;;;;;4989701;28;20475;-61
2022/12/22 06:49:21;;;;;;;78.28;6.35;;;6.60;99.90;;;;;;4990651;28;20077;-62
2022/12/22 06:51:48;;;;;;;110.18;7.70;;;6.50;99.90;;;;;;4973745;28;20137;-61
2022/12/22 06:54:14;;;;;;;71.45;7.20;;;6.50;99.90;;;;;;4990946;28;20050;-61
2022/12/22 06:56:48;;;;;;;51.03;6.77;;;6.40;99.90;;;;;;4989925;28;20486;-60
2022/12/22 06:59:14;;;;;;;27.30;5.45;;;6.30;99.90;;;;;;4991245;28;20046;-60
2022/12/22 07:01:41;;;;;;;38.08;6.80;;;6.30;99.90;;;;;;4993832;28;20042;-61
2022/12/22 07:04:09;;;;;;;54.47;7.18;;;6.20;99.90;;;;;;4973711;28;20078;-62
2022/12/22 07:06:36;;;;;;;40.10;6.45;;;6.10;99.90;;;;;;4973231;28;20086;-62
2022/12/22 07:09:03;;;;;;;22.38;5.88;;;6.10;99.90;;;;;;4970930;28;20048;-61
2022/12/22 07:11:30;;;;;;;12.15;4.97;;;6.00;99.90;;;;;;4972635;28;20178;-60
2022/12/22 07:13:57;;;;;;;10.60;5.00;;;5.90;99.90;;;;;;4987536;28;20046;-61
2022/12/22 07:16:23;;;;;;;6.70;4.43;;;5.90;99.90;;;;;;4982699;28;20038;-62
2022/12/22 07:18:50;;;;;;;5.20;3.10;;;5.90;99.90;;;;;;4989571;28;20054;-61
2022/12/22 07:21:17;;;;;;;7.85;3.50;;;5.90;99.90;;;;;;4990978;28;20043;-61
2022/12/22 07:23:44;;;;;;;6.97;3.28;;;5.90;99.90;;;;;;4990126;28;20050;-61
2022/12/22 07:26:11;;;;;;;6.13;2.90;;;6.00;99.90;;;;;;4984587;28;20356;-60
2022/12/22 07:28:39;;;;;;;10.00;3.60;;;6.10;99.90;;;;;;4986382;28;20046;-60
2022/12/22 07:31:06;;;;;;;5.55;2.45;;;6.10;99.90;;;;;;4973201;28;20149;-61
2022/12/22 07:33:33;;;;;;;4.90;2.53;;;6.10;99.90;;;;;;4957467;28;20464;-60
2022/12/22 07:36:18;;;;;;;5.43;2.47;;;6.10;99.90;;;;;;4971093;28;20061;-61
2022/12/22 07:38:47;;;;;;;4.95;2.72;;;6.10;99.90;;;;;;4987531;28;20116;-60
2022/12/22 07:44:01;;;;;;;4.85;2.72;;;6.20;99.90;;;;;;4972665;28;20089;-61
2022/12/22 07:46:29;;;;;;;7.28;2.75;;;6.10;99.90;;;;;;4987172;28;20039;-61
2022/12/22 07:51:41;;;;;;;6.07;2.63;;;6.20;99.90;;;;;;4979983;28;20104;-62
2022/12/22 07:54:09;;;;;;;5.30;3.33;;;6.30;99.90;;;;;;4986606;28;20054;-61
2022/12/22 07:56:36;;;;;;;5.55;3.38;;;6.30;99.90;;;;;;4954216;28;20133;-62
2022/12/22 07:59:04;;;;;;;9.15;3.03;;;6.40;99.90;;;;;;4968752;28;20088;-61
2022/12/22 08:01:30;;;;;;;5.07;3.08;;;6.40;99.90;;;;;;4970779;28;20081;-59
2022/12/22 08:03:57;;;;;;;6.07;2.97;;;6.40;99.90;;;;;;4984910;28;20054;-59
2022/12/22 08:06:24;;;;;;;5.18;3.00;;;6.50;99.90;;;;;;4959021;28;20098;-60
2022/12/22 08:08:51;;;;;;;5.40;2.85;;;6.60;99.90;;;;;;4985697;28;20081;-60
2022/12/22 08:11:18;;;;;;;5.25;3.05;;;6.60;99.90;;;;;;4987810;28;20057;-60
2022/12/22 08:13:45;;;;;;;9.57;3.55;;;6.70;99.90;;;;;;4986808;28;20046;-60
2022/12/22 08:16:12;;;;;;;6.40;3.10;;;6.70;99.90;;;;;;4983127;28;20077;-60
2022/12/22 08:18:39;;;;;;;4.18;2.22;;;6.80;99.90;;;;;;4968533;28;20419;-60
2022/12/22 08:21:06;;;;;;;5.00;2.65;;;6.80;99.90;;;;;;4970072;28;20109;-60
2022/12/22 08:23:33;;;;;;;4.40;2.58;;;6.90;99.90;;;;;;4968830;28;20057;-59
2022/12/22 08:26:14;;;;;;;6.45;4.03;;;6.90;99.90;;;;;;4985481;28;20120;-60
2022/12/22 08:28:48;;;;;;;12.10;2.90;;;7.00;99.90;;;;;;4987527;28;20483;-60
2022/12/22 08:31:16;;;;;;;11.35;2.55;;;7.10;99.90;;;;;;4970676;28;20050;-60
2022/12/22 08:33:42;;;;;;;5.57;2.15;;;7.20;99.90;;;;;;4948654;28;20054;-61
2022/12/22 08:36:09;;;;;;;4.97;2.83;;;7.20;99.90;;;;;;4638403;28;9999820;-60
2022/12/22 08:38:37;;;;;;;7.32;2.70;;;7.30;99.90;;;;;;4954743;28;20129;-60
2022/12/22 08:41:04;;;;;;;4.00;2.25;;;7.40;99.90;;;;;;4969628;28;20085;-61
2022/12/22 08:43:31;;;;;;;3.55;2.50;;;7.40;99.90;;;;;;4983162;28;20138;-60
2022/12/22 08:45:58;;;;;;;5.28;2.47;;;7.50;99.90;;;;;;4957144;28;20706;-61
2022/12/22 08:48:24;;;;;;;4.00;2.25;;;7.60;99.90;;;;;;4963799;28;20074;-60
2022/12/22 08:50:51;;;;;;;5.82;2.78;;;7.70;99.90;;;;;;4987615;28;20053;-60
2022/12/22 08:53:18;;;;;;;5.72;3.05;;;7.80;99.90;;;;;;4985164;28;20056;-60
2022/12/22 08:56:05;;;;;;;3.90;3.05;;;7.80;99.90;;;;;;4974052;28;20050;-61
2022/12/22 08:58:32;;;;;;;7.00;3.10;;;7.90;99.90;;;;;;4988515;28;20112;-60
2022/12/22 09:00:59;;;;;;;5.53;3.55;;;8.00;99.90;;;;;;4989510;28;20078;-61
2022/12/22 09:03:26;;;;;;;5.55;3.38;;;8.10;99.90;;;;;;4988274;28;20680;-62
2022/12/22 09:06:00;;;;;;;6.20;4.18;;;8.10;99.90;;;;;;4975847;28;20051;-60
2022/12/22 09:08:26;;;;;;;6.40;2.70;;;8.20;99.90;;;;;;4973987;28;20050;-60
2022/12/22 09:10:53;;;;;;;4.10;2.78;;;8.20;99.90;;;;;;4989571;28;20631;-60
2022/12/22 09:13:20;;;;;;;7.47;3.00;;;8.30;99.90;;;;;;4990193;28;20497;-61
2022/12/22 09:15:47;;;;;;;5.13;2.95;;;8.40;99.90;;;;;;4990342;28;20085;-62
2022/12/22 09:18:13;;;;;;;6.03;3.00;;;8.40;99.90;;;;;;4989593;28;20049;-60
2022/12/22 09:20:40;;;;;;;6.18;2.22;;;8.50;99.90;;;;;;4972208;28;20421;-61
2022/12/22 09:23:07;;;;;;;5.93;2.42;;;8.50;99.90;;;;;;4989428;28;20058;-61
2022/12/22 09:25:34;;;;;;;5.15;2.90;;;8.60;99.90;;;;;;4953035;28;20050;-61
2022/12/22 09:28:01;;;;;;;5.68;2.47;;;8.60;99.90;;;;;;4986079;28;20058;-61
2022/12/22 09:30:28;;;;;;;4.20;2.05;;;8.70;99.90;;;;;;4971652;28;20081;-61
2022/12/22 09:32:55;;;;;;;6.85;2.92;;;8.70;99.90;;;;;;4988936;28;20054;-61
2022/12/22 09:35:22;;;;;;;8.35;3.25;;;8.70;99.90;;;;;;4989186;28;20065;-61
2022/12/22 09:37:48;;;;;;;7.60;3.22;;;8.70;99.90;;;;;;4989751;28;20054;-61
2022/12/22 09:40:15;;;;;;;6.65;2.75;;;8.70;99.90;;;;;;4973005;28;20581;-61
2022/12/22 09:42:42;;;;;;;3.97;2.63;;;8.80;99.90;;;;;;4957083;28;20058;-62
2022/12/22 09:45:12;;;;;;;5.57;3.33;;;8.80;99.90;;;;;;4989692;28;20057;-60
2022/12/22 09:47:44;;;;;;;6.80;3.63;;;8.80;99.90;;;;;;4973460;28;20085;-62
2022/12/22 09:50:14;;;;;;;6.38;3.17;;;8.90;99.90;;;;;;4973347;28;20057;-61
2022/12/22 09:52:49;;;;;;;6.10;3.30;;;8.90;99.90;;;;;;4957170;28;20149;-62
2022/12/22 09:55:25;;;;;;;5.82;2.72;;;8.90;99.90;;;;;;4970145;28;20050;-61
2022/12/22 09:57:55;;;;;;;6.45;3.13;;;9.00;99.90;;;;;;4992104;28;20509;-60
2022/12/22 10:00:26;;;;;;;3.55;2.65;;;9.00;99.90;;;;;;4975992;28;20146;-61
2022/12/22 10:03:24;;;;;;;5.00;2.72;;;9.00;99.90;;;;;;4992119;28;20038;-61
2022/12/22 10:06:04;;;;;;;7.57;3.42;;;9.10;99.90;;;;;;4970620;28;20057;-61
2022/12/22 10:08:32;;;;;;;7.15;2.53;;;9.10;99.90;;;;;;4975464;28;20050;-60
2022/12/22 10:10:59;;;;;;;5.00;2.78;;;9.20;99.90;;;;;;4974440;28;20092;-60
2022/12/22 10:13:26;;;;;;;7.13;3.13;;;9.20;99.90;;;;;;4991467;28;20069;-61
2022/12/22 10:15:54;;;;;;;6.80;2.95;;;9.30;99.90;;;;;;4992555;28;20133;-61
2022/12/22 10:18:23;;;;;;;4.05;2.75;;;9.30;99.90;;;;;;4992711;28;20046;-61
2022/12/22 10:21:13;;;;;;;5.22;2.42;;;9.40;99.90;;;;;;4975226;28;20050;-61
2022/12/22 10:23:44;;;;;;;5.60;3.65;;;9.40;99.90;;;;;;4991337;28;20050;-63
2022/12/22 10:26:14;;;;;;;7.68;2.72;;;9.50;99.90;;;;;;4959392;28;20487;-60
2022/12/22 10:29:00;;;;;;;6.35;2.80;;;9.50;99.90;;;;;;4991681;28;20042;-61
2022/12/22 10:31:28;;;;;;;6.88;2.70;;;9.50;99.90;;;;;;4958962;28;20042;-61
2022/12/22 10:34:08;;;;;;;6.65;3.28;;;9.50;99.90;;;;;;4971565;28;20129;-61
2022/12/22 10:36:35;;;;;;;9.68;3.47;;;9.60;99.90;;;;;;4974702;28;20050;-61
2022/12/22 10:39:04;;;;;;;8.25;2.95;;;9.60;99.90;;;;;;4990033;28;20062;-61
2022/12/22 10:41:35;;;;;;;10.00;3.10;;;9.60;99.90;;;;;;4972427;28;20050;-60
2022/12/22 10:44:05;;;;;;;9.18;3.72;;;9.70;99.90;;;;;;4957752;28;20061;-59
2022/12/22 10:46:38;;;;;;;11.48;3.40;;;9.70;99.90;;;;;;4972216;28;20062;-60
2022/12/22 10:49:20;;;;;;;10.95;2.83;;;9.80;99.90;;;;;;4988925;28;20054;-61
2022/12/22 10:51:52;;;;;;;18.60;3.50;;;9.90;99.90;;;;;;4989019;28;20088;-58
2022/12/22 10:54:26;;;;;;;18.50;3.95;;;10.00;99.90;;;;;;4955015;28;20133;-60
2022/12/22 10:57:11;;;;;;;12.23;3.25;;;10.10;99.90;;;;;;4940288;28;20583;-60
2022/12/22 11:00:20;;;;;;;13.50;3.50;;;10.10;99.90;;;;;;4989239;28;20511;-61
2022/12/22 11:02:50;;;;;;;17.88;3.55;;;10.20;99.90;;;;;;4973958;28;20158;-61
2022/12/22 11:05:17;;;;;;;19.80;4.07;;;10.30;99.90;;;;;;4989082;28;20498;-60
2022/12/22 11:07:45;;;;;;;20.80;4.43;;;10.40;99.90;;;;;;4970545;28;20133;-62
2022/12/22 11:10:24;;;;;;;19.50;3.58;;;10.40;99.90;;;;;;4969910;28;20605;-61
2022/12/22 11:13:01;;;;;;;17.40;3.35;;;10.50;99.90;;;;;;4986571;28;20113;-61
2022/12/22 11:15:31;;;;;;;20.88;5.07;;;10.60;99.90;;;;;;4984585;28;20069;-62
2022/12/22 11:18:15;;;;;;;20.23;3.90;;;10.60;99.90;;;;;;4987086;28;20050;-60
2022/12/22 11:20:57;;;;;;;27.45;5.25;;;10.70;99.90;;;;;;4970511;28;20474;-60
2022/12/22 11:23:28;;;;;;;27.40;5.53;;;10.80;99.90;;;;;;4986316;28;20072;-59
2022/12/22 11:25:57;;;;;;;21.00;3.83;;;10.80;99.90;;;;;;4984573;28;20058;-62
2022/12/22 11:28:49;;;;;;;22.98;4.78;;;10.80;99.90;;;;;;4986687;28;20141;-61
2022/12/22 11:31:25;;;;;;;25.75;5.28;;;10.80;99.90;;;;;;4986544;28;20054;-61
2022/12/22 11:33:56;;;;;;;16.70;3.53;;;10.90;99.90;;;;;;4986047;28;20056;-62
2022/12/22 11:36:37;;;;;;;19.85;3.33;;;10.90;99.90;;;;;;4969377;28;20590;-61
2022/12/22 11:39:14;;;;;;;22.05;4.95;;;11.00;99.90;;;;;;4955594;28;20042;-60
2022/12/22 11:42:06;;;;;;;18.55;3.08;;;11.00;99.90;;;;;;4960312;28;20078;-60
2022/12/22 11:44:45;;;;;;;12.48;3.13;;;11.00;99.90;;;;;;4975683;28;20060;-61
2022/12/22 11:47:27;;;;;;;15.75;3.67;;;11.10;99.90;;;;;;4979550;28;20133;-61
2022/12/22 11:50:20;;;;;;;16.23;3.85;;;11.10;99.90;;;;;;4971122;28;20064;-60
2022/12/22 11:53:21;;;;;;;19.40;2.97;;;11.00;99.90;;;;;;4968531;28;20054;-61
2022/12/22 11:56:00;;;;;;;19.88;3.15;;;11.10;99.90;;;;;;4989213;28;20058;-61
2022/12/22 11:59:05;;;;;;;19.52;3.35;;;11.10;99.90;;;;;;4987442;28;20054;-61
2022/12/22 12:01:38;;;;;;;11.45;2.35;;;11.10;99.90;;;;;;4941684;28;20078;-60
2022/12/22 12:04:23;;;;;;;19.75;2.95;;;11.20;99.90;;;;;;4986376;28;20050;-61
2022/12/22 12:06:57;;;;;;;12.07;3.45;;;11.20;99.90;;;;;;4987391;28;20089;-60
2022/12/22 12:09:36;;;;;;;13.85;3.85;;;11.20;99.90;;;;;;4950701;28;20057;-61
2022/12/22 12:12:12;;;;;;;7.45;2.13;;;11.30;99.90;;;;;;4970873;28;20054;-60
2022/12/22 12:14:44;;;;;;;16.25;3.25;;;11.30;99.90;;;;;;4977146;28;20052;-62
2022/12/22 12:17:21;;;;;;;13.38;2.70;;;11.30;99.90;;;;;;4969706;28;20050;-61
2022/12/22 12:19:51;;;;;;;11.38;2.63;;;11.30;99.90;;;;;;4970239;28;20042;-60
2022/12/22 12:22:44;;;;;;;12.20;2.97;;;11.30;99.90;;;;;;4969098;28;20164;-61
2022/12/22 12:25:28;;;;;;;15.73;2.78;;;11.40;99.90;;;;;;4977270;28;20064;-61
2022/12/22 12:28:17;;;;;;;14.75;2.83;;;11.40;99.90;;;;;;4968577;28;20042;-62
2022/12/22 12:30:53;;;;;;;10.13;2.55;;;11.50;99.90;;;;;;4987155;28;20149;-61
2022/12/22 12:33:25;;;;;;;15.02;4.78;;;11.40;99.90;;;;;;4968029;28;20073;-61
2022/12/22 12:36:05;;;;;;;15.82;3.08;;;11.50;99.90;;;;;;4986523;28;20061;-62
2022/12/22 12:39:19;;;;;;;13.68;2.42;;;11.50;99.90;;;;;;4968142;28;20298;-60
2022/12/22 12:42:14;;;;;;;14.05;2.78;;;11.40;99.90;;;;;;4985642;28;20090;-61
2022/12/22 12:44:40;;;;;;;;;;;11.50;99.90;;;;;;4946683;28;20144;-62
2022/12/22 12:47:33;;;;;;;14.40;3.22;;;11.50;99.90;;;;;;4970000;28;19921;-60
2022/12/22 12:50:32;;;;;;;20.77;4.47;;;11.50;99.90;;;;;;4985533;28;20104;-60
2022/12/22 12:53:06;;;;;;;13.98;3.22;;;11.50;99.90;;;;;;4961862;28;20366;-61
2022/12/22 12:55:38;;;;;;;14.70;3.17;;;11.60;99.90;;;;;;4983123;28;20061;-61
2022/12/22 12:58:09;;;;;;;25.55;3.97;;;11.60;99.90;;;;;;4956358;28;20513;-61
2022/12/22 13:00:36;;;;;;;19.70;3.20;;;11.60;99.90;;;;;;4963918;28;20845;-60
2022/12/22 13:03:28;;;;;;;13.63;2.78;;;11.60;99.90;;;;;;4967339;28;20082;-61
2022/12/22 13:06:48;;;;;;;22.75;4.13;;;11.60;99.90;;;;;;4970775;28;20051;-60
2022/12/22 13:09:18;;;;;;;15.65;3.83;;;11.60;99.90;;;;;;4963300;28;20052;-60
2022/12/22 13:12:33;;;;;;;21.77;3.50;;;11.60;99.90;;;;;;4985354;28;20389;-60
2022/12/22 13:15:00;;;;;;;12.50;3.72;;;11.60;99.90;;;;;;4975996;28;20196;-60
2022/12/22 13:17:47;;;;;;;14.80;3.55;;;11.60;99.90;;;;;;4968684;28;20457;-61
2022/12/22 13:20:15;;;;;;;28.80;5.50;;;11.60;99.90;;;;;;4967864;28;20058;-60
2022/12/22 13:22:42;;;;;;;22.15;4.70;;;11.60;99.90;;;;;;4968192;28;20061;-60
2022/12/22 13:25:17;;;;;;;25.13;4.32;;;11.60;99.90;;;;;;4967465;28;20054;-60
2022/12/22 13:27:44;;;;;;;20.15;3.97;;;11.60;99.90;;;;;;4967804;28;20055;-60
2022/12/22 13:30:18;;;;;;;18.20;5.75;;;11.60;99.90;;;;;;4952261;28;20077;-62
2022/12/22 13:32:46;;;;;;;22.25;4.45;;;11.60;99.90;;;;;;4967810;28;20112;-61
2022/12/22 13:35:34;;;;;;;18.50;3.83;;;11.60;99.90;;;;;;4984177;28;20488;-61
2022/12/22 13:38:30;;;;;;;20.67;3.05;;;11.60;99.90;;;;;;4956031;28;20050;-60
2022/12/22 13:40:58;;;;;;;11.70;3.40;;;11.60;99.90;;;;;;4977360;28;20125;-61
2022/12/22 13:43:26;;;;;;;19.80;3.55;;;11.60;99.90;;;;;;4984870;28;20100;-61
2022/12/22 13:45:56;;;;;;;22.17;4.10;;;11.60;99.90;;;;;;4986332;28;20185;-61
2022/12/22 13:48:42;;;;;;;19.92;4.38;;;11.50;99.90;;;;;;4988285;28;20367;-59
2022/12/22 13:51:28;;;;;;;21.27;4.20;;;11.50;99.90;;;;;;4988007;28;20038;-60
2022/12/22 13:54:08;;;;;;;16.30;3.63;;;11.50;99.90;;;;;;4987472;28;20058;-61
2022/12/22 13:56:41;;;;;;;19.15;3.10;;;11.50;99.90;;;;;;4988537;28;20094;-60
2022/12/22 13:59:32;;;;;;;17.77;3.85;;;11.50;99.90;;;;;;4988485;28;20444;-61
2022/12/22 14:02:19;;;;;;;16.88;3.47;;;11.40;99.90;;;;;;4970637;28;20050;-61
2022/12/22 14:05:05;;;;;;;20.00;3.80;;;11.50;99.90;;;;;;4988170;28;20076;-61
2022/12/22 14:07:31;;;;;;;22.10;4.30;;;11.40;99.90;;;;;;4986741;28;20097;-62
2022/12/22 14:09:58;;;;;;;21.33;4.35;;;11.40;99.90;;;;;;4970978;28;20505;-62
2022/12/22 14:12:27;;;;;;;24.52;4.55;;;11.40;99.90;;;;;;4988090;28;20465;-61
2022/12/22 14:14:55;;;;;;;18.27;4.07;;;11.40;99.90;;;;;;4954286;28;20122;-62
2022/12/22 14:17:27;;;;;;;19.80;3.83;;;11.40;99.90;;;;;;4971633;28;20528;-63
2022/12/22 14:19:56;;;;;;;18.38;3.38;;;11.40;99.90;;;;;;4956006;28;20511;-62
2022/12/22 14:22:36;;;;;;;13.65;3.33;;;11.40;99.90;;;;;;4991027;28;20097;-62
2022/12/22 14:25:08;;;;;;;20.70;4.95;;;11.40;99.90;;;;;;4991624;28;20054;-60
2022/12/22 14:27:37;;;;;;;19.48;3.95;;;11.30;99.90;;;;;;4978455;28;20073;-63
2022/12/22 14:30:07;;;;;;;20.55;3.75;;;11.30;99.90;;;;;;4971209;28;20493;-62
2022/12/22 14:32:38;;;;;;;9.40;2.88;;;11.40;99.90;;;;;;4970798;28;20442;-63
2022/12/22 14:35:21;;;;;;;16.10;4.18;;;11.40;99.90;;;;;;4983408;28;20445;-61
2022/12/22 14:37:53;;;;;;;25.07;4.13;;;11.30;99.90;;;;;;4978616;28;20061;-62
2022/12/22 14:40:33;;;;;;;14.35;4.07;;;11.40;99.90;;;;;;4949853;28;20509;-59
2022/12/22 14:43:06;;;;;;;16.88;3.75;;;11.30;99.90;;;;;;4978064;28;20060;-63
2022/12/22 14:45:33;;;;;;;12.23;3.55;;;11.30;99.90;;;;;;4969512;28;20078;-61
2022/12/22 14:48:00;;;;;;;16.98;3.83;;;11.30;99.90;;;;;;4987179;28;20776;-62
2022/12/22 14:50:28;;;;;;;12.25;3.67;;;11.30;99.90;;;;;;4985784;28;20050;-63
2022/12/22 14:52:58;;;;;;;24.05;6.95;;;11.30;99.90;;;;;;4968697;28;20046;-61
2022/12/22 14:55:26;;;;;;;23.45;6.55;;;11.30;99.90;;;;;;4968389;28;20611;-61
2022/12/22 14:58:12;;;;;;;22.45;3.63;;;11.30;99.90;;;;;;4985316;28;20151;-61
2022/12/22 15:00:43;;;;;;;16.90;3.60;;;11.30;99.90;;;;;;4967604;28;20513;-62
2022/12/22 15:03:32;;;;;;;21.25;4.15;;;11.30;99.90;;;;;;4972922;28;20046;-62
2022/12/22 15:06:23;;;;;;;12.50;3.03;;;11.30;99.90;;;;;;4969717;28;20058;-62
2022/12/22 15:08:52;;;;;;;16.83;3.67;;;11.40;99.90;;;;;;4986970;28;20150;-62
2022/12/22 15:11:19;;;;;;;12.07;3.75;;;11.30;99.90;;;;;;4970114;28;20050;-62
2022/12/22 15:13:47;;;;;;;17.45;3.15;;;11.30;99.90;;;;;;4965807;28;20158;-62
2022/12/22 15:16:15;;;;;;;19.58;4.50;;;11.30;99.90;;;;;;4970517;28;20070;-63
2022/12/22 15:18:42;;;;;;;18.27;4.57;;;11.30;99.90;;;;;;4971152;28;20105;-63
2022/12/22 15:21:11;;;;;;;20.90;3.22;;;11.30;99.90;;;;;;4978011;28;20514;-63
2022/12/22 15:23:39;;;;;;;13.65;3.42;;;11.30;99.90;;;;;;4969270;28;20058;-62
2022/12/22 15:26:05;;;;;;;15.95;3.00;;;11.30;99.90;;;;;;4985667;28;20050;-61
2022/12/22 15:28:32;;;;;;;13.73;3.00;;;11.30;99.90;;;;;;4968709;28;20047;-62
2022/12/22 15:30:59;;;;;;;13.80;3.03;;;11.30;99.90;;;;;;4952358;28;20050;-62
2022/12/22 15:33:26;;;;;;;15.52;3.50;;;11.30;99.90;;;;;;4968139;28;20085;-62
2022/12/22 15:35:53;;;;;;;16.50;5.57;;;11.20;99.90;;;;;;4986329;28;20046;-62
2022/12/22 15:38:23;;;;;;;14.85;3.00;;;11.20;99.90;;;;;;4986196;28;20177;-62
2022/12/22 15:40:50;;;;;;;16.58;4.50;;;11.20;99.90;;;;;;4965077;28;20433;-61
2022/12/22 15:43:17;;;;;;;14.75;3.55;;;11.20;99.90;;;;;;4975569;28;20133;-62
2022/12/22 15:46:04;;;;;;;18.05;3.60;;;11.20;99.90;;;;;;4985017;28;20046;-60
2022/12/22 15:48:35;;;;;;;17.42;4.45;;;11.20;99.90;;;;;;4985834;28;20046;-60
2022/12/22 15:51:03;;;;;;;16.08;3.03;;;11.20;99.90;;;;;;4967642;28;20136;-62
2022/12/22 15:53:30;;;;;;;18.15;3.25;;;11.20;99.90;;;;;;4952377;28;20520;-62
2022/12/22 15:55:57;;;;;;;19.30;4.80;;;11.20;99.90;;;;;;4967659;28;20133;-62
2022/12/22 15:58:27;;;;;;;16.02;2.47;;;11.20;99.90;;;;;;4986835;28;20399;-62
2022/12/22 16:00:54;;;;;;;26.13;4.07;;;11.20;99.90;;;;;;4956138;28;20042;-62
2022/12/22 16:03:21;;;;;;;18.73;4.13;;;11.20;99.90;;;;;;4988931;28;20061;-63
2022/12/22 16:05:48;;;;;;;16.45;3.08;;;11.20;99.90;;;;;;4988373;28;20050;-62
2022/12/22 16:08:16;;;;;;;24.50;3.80;;;11.20;99.90;;;;;;4988165;28;20060;-61
2022/12/22 16:10:44;;;;;;;19.95;3.72;;;11.20;99.90;;;;;;4971480;28;20194;-62
2022/12/22 16:13:12;;;;;;;14.73;3.63;;;11.20;99.90;;;;;;4970658;28;20046;-62
2022/12/22 16:15:38;;;;;;;18.20;4.45;;;11.20;99.90;;;;;;4989026;28;20056;-61
2022/12/22 16:18:06;;;;;;;20.02;4.95;;;11.20;99.90;;;;;;4988627;28;20051;-62
2022/12/22 16:20:38;;;;;;;25.40;5.28;;;11.20;99.90;;;;;;4972591;28;20169;-61
2022/12/22 16:23:05;;;;;;;23.33;4.93;;;11.20;99.90;;;;;;4973047;28;20154;-62
2022/12/22 16:25:37;;;;;;;20.83;4.75;;;11.20;99.90;;;;;;4973026;28;20440;-62
2022/12/22 16:28:04;;;;;;;31.23;7.20;;;11.20;99.90;;;;;;4972879;28;20058;-62
2022/12/22 16:30:32;;;;;;;25.52;5.28;;;11.10;99.90;;;;;;4956369;28;20137;-62
2022/12/22 16:32:59;;;;;;;20.63;4.15;;;11.10;99.90;;;;;;4972267;28;20126;-62
2022/12/22 16:35:27;;;;;;;25.05;5.15;;;11.20;99.90;;;;;;4972205;28;20125;-62
2022/12/22 16:37:55;;;;;;;32.33;6.45;;;11.20;99.90;;;;;;4971940;28;20418;-62
2022/12/22 16:40:22;;;;;;;34.70;8.07;;;11.20;99.90;;;;;;4988353;28;20047;-62
2022/12/22 16:43:14;;;;;;;30.83;5.93;;;11.20;99.90;;;;;;4986969;28;20137;-62
2022/12/22 16:45:58;;;;;;;25.20;5.53;;;11.20;99.90;;;;;;4959815;28;20080;-62
2022/12/22 16:48:33;;;;;;;40.58;6.43;;;11.20;99.90;;;;;;4985660;28;20533;-62
2022/12/22 16:51:00;;;;;;;32.40;6.00;;;11.20;99.90;;;;;;4967621;28;20145;-61
2022/12/22 16:53:27;;;;;;;34.28;7.78;;;11.20;99.90;;;;;;4984394;28;20060;-61